Time;durP1;ratioP1;P1;durP2;ratioP2;P2;SDS_P1;SDS_P2;PMS_P1;PMS_P2;Temp;Humidity;BMP_temperature;BMP_pressure;BME280_temperature;BME280_humidity;BME280_pressure;Samples;Min_cycle;Max_cycle;Signal;HPM_P1;HPM_P2
2021/06/09 00:00:31;;;;;;;0.00;0.00;;;;;;;;;;5121697;28;20288;-63
2021/06/09 00:02:57;;;;;;;0.00;0.00;;;;;;;;;;5120263;28;20464;-63
2021/06/09 00:05:23;;;;;;;0.00;0.00;;;;;;;;;;5115736;28;20580;-63
2021/06/09 00:07:50;;;;;;;0.00;0.00;;;;;;;;;;5131352;27;20258;-63
2021/06/09 00:10:15;;;;;;;0.10;0.10;;;;;;;;;;5129695;27;20390;-63
2021/06/09 00:12:41;;;;;;;0.00;0.00;;;;;;;;;;5116657;28;20206;-63
2021/06/09 00:15:09;;;;;;;0.00;0.00;;;;;;;;;;5119418;28;20203;-65
2021/06/09 00:17:35;;;;;;;0.00;0.00;;;;;;;;;;5124980;28;20204;-63
2021/06/09 00:20:01;;;;;;;0.00;0.00;;;;;;;;;;5121218;27;20514;-64
2021/06/09 00:22:27;;;;;;;0.00;0.00;;;;;;;;;;5126238;27;20213;-63
2021/06/09 00:24:54;;;;;;;0.00;0.00;;;;;;;;;;5126117;27;20213;-64
2021/06/09 00:27:20;;;;;;;0.00;0.00;;;;;;;;;;5123663;28;20559;-63
2021/06/09 00:29:45;;;;;;;0.03;0.03;;;;;;;;;;5125313;28;20205;-63
2021/06/09 00:32:11;;;;;;;0.00;0.00;;;;;;;;;;5126543;28;20199;-63
2021/06/09 00:34:37;;;;;;;0.10;0.10;;;;;;;;;;5141197;27;20510;-63
2021/06/09 00:37:03;;;;;;;0.00;0.00;;;;;;;;;;5113846;28;20211;-63
2021/06/09 00:39:29;;;;;;;0.00;0.00;;;;;;;;;;5115188;28;20229;-63
2021/06/09 00:41:56;;;;;;;0.10;0.10;;;;;;;;;;5114638;28;20247;-63
2021/06/09 00:44:21;;;;;;;0.00;0.00;;;;;;;;;;5116663;28;20209;-63
2021/06/09 00:46:47;;;;;;;0.00;0.00;;;;;;;;;;5114248;28;20253;-63
2021/06/09 00:49:13;;;;;;;0.00;0.00;;;;;;;;;;5111517;28;20227;-63
2021/06/09 00:51:39;;;;;;;0.00;0.00;;;;;;;;;;5126516;28;20293;-63
2021/06/09 00:54:05;;;;;;;0.10;0.10;;;;;;;;;;5119854;28;20392;-65
2021/06/09 00:56:31;;;;;;;0.00;0.00;;;;;;;;;;5120944;28;20283;-62
2021/06/09 00:58:58;;;;;;;0.08;0.08;;;;;;;;;;5130860;27;20201;-63
2021/06/09 01:01:25;;;;;;;0.05;0.05;;;;;;;;;;5133263;27;20259;-63
2021/06/09 01:03:51;;;;;;;0.00;0.00;;;;;;;;;;5117453;27;20424;-63
2021/06/09 01:06:17;;;;;;;0.00;0.00;;;;;;;;;;5120780;28;20253;-63
2021/06/09 01:08:43;;;;;;;0.00;0.00;;;;;;;;;;5115297;28;20210;-63
2021/06/09 01:11:10;;;;;;;0.00;0.00;;;;;;;;;;5112490;28;20223;-63
2021/06/09 01:13:36;;;;;;;0.00;0.00;;;;;;;;;;5126653;28;20213;-62
2021/06/09 01:16:03;;;;;;;0.03;0.03;;;;;;;;;;5113282;28;20277;-62
2021/06/09 01:18:29;;;;;;;0.00;0.00;;;;;;;;;;5126717;28;20374;-62
2021/06/09 01:20:57;;;;;;;0.10;0.10;;;;;;;;;;5118459;28;20201;-63
2021/06/09 01:23:24;;;;;;;0.10;0.10;;;;;;;;;;5122534;28;20206;-64
2021/06/09 01:25:50;;;;;;;0.00;0.00;;;;;;;;;;5121933;28;20215;-63
2021/06/09 01:28:16;;;;;;;0.08;0.08;;;;;;;;;;5109057;28;20483;-62
2021/06/09 01:30:43;;;;;;;0.03;0.03;;;;;;;;;;5108449;28;20268;-65
2021/06/09 01:33:09;;;;;;;0.00;0.00;;;;;;;;;;5112533;28;20233;-62
2021/06/09 01:35:35;;;;;;;0.00;0.00;;;;;;;;;;5118083;28;20203;-62
2021/06/09 01:38:01;;;;;;;0.00;0.00;;;;;;;;;;5124785;28;20265;-65
2021/06/09 01:40:29;;;;;;;0.00;0.00;;;;;;;;;;5130458;27;20200;-63
2021/06/09 01:42:55;;;;;;;0.00;0.00;;;;;;;;;;5122045;27;20316;-62
2021/06/09 01:45:21;;;;;;;0.10;0.10;;;;;;;;;;5109722;27;20205;-63
2021/06/09 01:47:47;;;;;;;0.00;0.00;;;;;;;;;;5110061;27;20372;-63
2021/06/09 01:50:14;;;;;;;0.00;0.00;;;;;;;;;;5111983;28;20229;-63
2021/06/09 01:52:41;;;;;;;0.00;0.00;;;;;;;;;;5118194;28;20207;-63
2021/06/09 01:55:08;;;;;;;0.03;0.03;;;;;;;;;;5121829;27;20241;-63
2021/06/09 01:57:35;;;;;;;0.00;0.00;;;;;;;;;;5112264;28;20208;-63
2021/06/09 02:00:02;;;;;;;0.00;0.00;;;;;;;;;;5119385;28;20207;-64
2021/06/09 02:02:27;;;;;;;0.00;0.00;;;;;;;;;;5114691;28;20245;-65
2021/06/09 02:04:53;;;;;;;0.10;0.10;;;;;;;;;;5128305;27;20503;-63
2021/06/09 02:07:19;;;;;;;0.00;0.00;;;;;;;;;;5136200;27;20236;-64
2021/06/09 02:09:45;;;;;;;0.00;0.00;;;;;;;;;;5112516;28;20578;-64
2021/06/09 02:12:11;;;;;;;0.10;0.10;;;;;;;;;;5112124;28;20206;-63
2021/06/09 02:14:39;;;;;;;0.00;0.00;;;;;;;;;;5126343;27;20206;-63
2021/06/09 02:17:05;;;;;;;0.00;0.00;;;;;;;;;;5110685;28;20481;-63
2021/06/09 02:19:31;;;;;;;0.08;0.08;;;;;;;;;;5125971;28;20206;-62
2021/06/09 02:21:57;;;;;;;0.00;0.00;;;;;;;;;;5119602;28;20503;-63
2021/06/09 02:24:23;;;;;;;0.10;0.10;;;;;;;;;;5132254;27;20209;-63
2021/06/09 02:26:50;;;;;;;0.10;0.10;;;;;;;;;;5126978;27;20204;-64
2021/06/09 02:29:15;;;;;;;0.10;0.10;;;;;;;;;;5110135;28;20208;-63
2021/06/09 02:31:46;;;;;;;0.05;0.05;;;;;;;;;;5114803;28;20418;-63
2021/06/09 02:34:12;;;;;;;0.10;0.10;;;;;;;;;;5112029;28;20199;-63
2021/06/09 02:36:38;;;;;;;0.08;0.08;;;;;;;;;;5126109;27;20199;-63
2021/06/09 02:39:04;;;;;;;0.00;0.00;;;;;;;;;;5120544;28;20233;-62
2021/06/09 02:41:30;;;;;;;0.03;0.03;;;;;;;;;;5120870;28;20202;-62
2021/06/09 02:43:58;;;;;;;0.08;0.08;;;;;;;;;;5122420;28;20203;-62
2021/06/09 02:46:25;;;;;;;0.10;0.10;;;;;;;;;;5121677;28;20205;-62
2021/06/09 02:48:55;;;;;;;0.05;0.05;;;;;;;;;;5124524;28;20483;-62
2021/06/09 02:51:22;;;;;;;0.10;0.10;;;;;;;;;;5124788;28;20219;-63
2021/06/09 02:53:50;;;;;;;0.00;0.00;;;;;;;;;;5118272;28;20213;-62
2021/06/09 02:56:19;;;;;;;0.10;0.10;;;;;;;;;;5110410;27;20257;-62
2021/06/09 02:58:47;;;;;;;0.08;0.08;;;;;;;;;;5113572;28;20395;-62
2021/06/09 03:01:19;;;;;;;0.10;0.10;;;;;;;;;;5114786;28;20261;-63
2021/06/09 03:03:47;;;;;;;0.00;0.00;;;;;;;;;;5119325;28;20265;-63
2021/06/09 03:06:18;;;;;;;0.10;0.10;;;;;;;;;;5124356;27;20226;-63
2021/06/09 03:08:48;;;;;;;0.10;0.10;;;;;;;;;;5124503;28;20196;-63
2021/06/09 03:11:19;;;;;;;0.00;0.00;;;;;;;;;;5119483;28;20217;-62
2021/06/09 03:13:54;;;;;;;0.00;0.00;;;;;;;;;;5117677;28;20281;-64
2021/06/09 03:16:21;;;;;;;0.08;0.08;;;;;;;;;;5110588;28;20201;-63
2021/06/09 03:18:48;;;;;;;0.10;0.10;;;;;;;;;;5126110;27;20365;-65
2021/06/09 03:21:16;;;;;;;0.00;0.00;;;;;;;;;;5124307;28;20210;-63
2021/06/09 03:23:44;;;;;;;0.00;0.00;;;;;;;;;;5123646;28;20485;-63
2021/06/09 03:26:11;;;;;;;0.00;0.00;;;;;;;;;;5104278;28;20206;-64
2021/06/09 03:28:41;;;;;;;0.00;0.00;;;;;;;;;;5106506;28;20246;-64
2021/06/09 03:31:09;;;;;;;0.10;0.10;;;;;;;;;;5104802;28;20223;-64
2021/06/09 03:33:38;;;;;;;0.10;0.10;;;;;;;;;;5109178;28;20203;-64
2021/06/09 03:36:08;;;;;;;0.10;0.10;;;;;;;;;;5119903;28;20462;-64
2021/06/09 03:38:39;;;;;;;0.10;0.10;;;;;;;;;;5119381;28;20230;-64
2021/06/09 03:41:07;;;;;;;0.08;0.08;;;;;;;;;;5121253;28;20194;-64
2021/06/09 03:43:34;;;;;;;0.00;0.00;;;;;;;;;;5121629;28;20224;-63
2021/06/09 03:46:01;;;;;;;0.05;0.05;;;;;;;;;;5119538;28;20206;-63
2021/06/09 03:48:28;;;;;;;0.03;0.03;;;;;;;;;;5121773;28;20215;-64
2021/06/09 03:50:56;;;;;;;0.00;0.00;;;;;;;;;;5123574;28;20222;-62
2021/06/09 03:53:23;;;;;;;0.05;0.05;;;;;;;;;;5128098;27;20390;-64
2021/06/09 03:55:51;;;;;;;0.10;0.10;;;;;;;;;;5132212;27;20201;-63
2021/06/09 03:58:17;;;;;;;0.10;0.10;;;;;;;;;;5119101;28;20207;-63
2021/06/09 04:00:45;;;;;;;0.00;0.00;;;;;;;;;;5114859;28;20526;-63
2021/06/09 04:03:12;;;;;;;0.00;0.00;;;;;;;;;;5111373;28;20289;-63
2021/06/09 04:05:38;;;;;;;0.10;0.10;;;;;;;;;;5115883;28;20201;-63
2021/06/09 04:08:05;;;;;;;0.10;0.10;;;;;;;;;;5111631;28;20206;-63
2021/06/09 04:10:31;;;;;;;0.10;0.10;;;;;;;;;;5129627;28;20220;-63
2021/06/09 04:12:58;;;;;;;0.00;0.00;;;;;;;;;;5119211;28;20419;-63
2021/06/09 04:15:26;;;;;;;0.00;0.00;;;;;;;;;;5117923;28;20218;-64
2021/06/09 04:17:52;;;;;;;0.00;0.00;;;;;;;;;;5123869;28;20202;-63
2021/06/09 04:20:22;;;;;;;0.00;0.00;;;;;;;;;;5120723;28;20474;-63
2021/06/09 04:22:48;;;;;;;0.00;0.00;;;;;;;;;;5120683;28;20211;-63
2021/06/09 04:25:14;;;;;;;0.00;0.00;;;;;;;;;;5113693;28;20210;-63
2021/06/09 04:27:43;;;;;;;0.08;0.08;;;;;;;;;;5127359;28;20216;-62
2021/06/09 04:30:12;;;;;;;0.00;0.00;;;;;;;;;;5127007;28;20387;-64
2021/06/09 04:32:47;;;;;;;0.00;0.00;;;;;;;;;;5114667;28;20202;-63
2021/06/09 04:35:13;;;;;;;0.00;0.00;;;;;;;;;;5117136;28;20203;-64
2021/06/09 04:37:39;;;;;;;0.00;0.00;;;;;;;;;;5122500;28;20232;-63
2021/06/09 04:40:05;;;;;;;0.10;0.10;;;;;;;;;;5125910;28;20209;-64
2021/06/09 04:42:32;;;;;;;0.05;0.05;;;;;;;;;;5122974;28;20200;-63
2021/06/09 04:44:58;;;;;;;0.10;0.10;;;;;;;;;;5118195;28;20200;-63
2021/06/09 04:47:28;;;;;;;0.10;0.10;;;;;;;;;;5121915;28;20203;-63
2021/06/09 04:49:54;;;;;;;0.05;0.05;;;;;;;;;;5122385;28;20206;-64
2021/06/09 04:52:20;;;;;;;0.00;0.00;;;;;;;;;;5118842;27;20318;-64
2021/06/09 04:54:46;;;;;;;0.00;0.00;;;;;;;;;;5116339;27;20206;-64
2021/06/09 04:57:11;;;;;;;0.10;0.10;;;;;;;;;;5120487;28;20204;-63
2021/06/09 04:59:37;;;;;;;0.10;0.10;;;;;;;;;;5122052;28;20272;-63
2021/06/09 05:02:03;;;;;;;0.00;0.00;;;;;;;;;;5117182;28;20382;-65
2021/06/09 05:04:30;;;;;;;0.03;0.03;;;;;;;;;;5118017;28;20209;-64
2021/06/09 05:06:56;;;;;;;0.00;0.00;;;;;;;;;;5112173;28;20220;-63
2021/06/09 05:09:23;;;;;;;0.00;0.00;;;;;;;;;;5123343;27;20293;-65
2021/06/09 05:11:50;;;;;;;0.10;0.10;;;;;;;;;;5126990;27;20226;-62
2021/06/09 05:14:20;;;;;;;0.00;0.00;;;;;;;;;;5115261;28;20206;-63
2021/06/09 05:16:47;;;;;;;0.00;0.00;;;;;;;;;;5119477;28;20489;-62
2021/06/09 05:19:15;;;;;;;0.00;0.00;;;;;;;;;;5121430;28;20201;-63
2021/06/09 05:21:42;;;;;;;0.10;0.10;;;;;;;;;;5116089;28;20228;-65
2021/06/09 05:24:08;;;;;;;0.00;0.00;;;;;;;;;;5114610;28;20501;-63
2021/06/09 05:26:35;;;;;;;0.00;0.00;;;;;;;;;;5115809;28;20206;-63
2021/06/09 05:29:02;;;;;;;0.00;0.00;;;;;;;;;;5111477;28;20506;-63
2021/06/09 05:31:28;;;;;;;0.00;0.00;;;;;;;;;;5114452;28;20233;-63
2021/06/09 05:33:54;;;;;;;0.00;0.00;;;;;;;;;;5115779;27;20207;-63
2021/06/09 05:36:20;;;;;;;0.00;0.00;;;;;;;;;;5112422;28;20354;-63
2021/06/09 05:38:48;;;;;;;0.00;0.00;;;;;;;;;;5117989;28;20229;-63
2021/06/09 05:41:13;;;;;;;0.10;0.10;;;;;;;;;;5123480;27;20199;-63
2021/06/09 05:43:40;;;;;;;0.00;0.00;;;;;;;;;;5128208;27;20481;-63
2021/06/09 05:46:06;;;;;;;0.10;0.10;;;;;;;;;;5122519;28;20461;-63
2021/06/09 05:48:32;;;;;;;0.00;0.00;;;;;;;;;;5117357;28;20199;-63
2021/06/09 05:50:58;;;;;;;0.10;0.10;;;;;;;;;;5119835;28;20454;-63
2021/06/09 05:53:25;;;;;;;0.00;0.00;;;;;;;;;;5126175;28;20208;-64
2021/06/09 05:55:52;;;;;;;0.00;0.00;;;;;;;;;;5125865;28;20201;-63
2021/06/09 05:58:18;;;;;;;0.00;0.00;;;;;;;;;;5125460;28;20202;-62
2021/06/09 06:00:44;;;;;;;0.10;0.10;;;;;;;;;;5113206;28;20222;-63
2021/06/09 06:03:10;;;;;;;0.00;0.00;;;;;;;;;;5119661;28;20352;-63
2021/06/09 06:05:36;;;;;;;0.00;0.00;;;;;;;;;;5120453;27;20476;-64
2021/06/09 06:08:02;;;;;;;0.00;0.00;;;;;;;;;;5114004;27;20196;-63
2021/06/09 06:10:28;;;;;;;0.00;0.00;;;;;;;;;;5116037;28;20214;-63
2021/06/09 06:12:56;;;;;;;0.00;0.00;;;;;;;;;;5122959;27;20207;-63
2021/06/09 06:15:23;;;;;;;0.00;0.00;;;;;;;;;;5113314;28;20556;-65
2021/06/09 06:17:49;;;;;;;0.00;0.00;;;;;;;;;;5137873;27;20523;-64
2021/06/09 06:20:16;;;;;;;0.00;0.00;;;;;;;;;;5120861;27;20213;-61
2021/06/09 06:22:42;;;;;;;0.00;0.00;;;;;;;;;;5130318;27;20215;-65
2021/06/09 06:25:08;;;;;;;0.10;0.10;;;;;;;;;;5114209;27;20233;-63
2021/06/09 06:27:34;;;;;;;0.08;0.08;;;;;;;;;;5121636;28;20518;-62
2021/06/09 06:30:02;;;;;;;0.05;0.05;;;;;;;;;;5108298;28;20208;-62
2021/06/09 06:32:28;;;;;;;0.08;0.08;;;;;;;;;;5117798;27;20279;-62
2021/06/09 06:34:54;;;;;;;0.00;0.00;;;;;;;;;;5115723;28;20216;-63
2021/06/09 06:37:24;;;;;;;0.00;0.00;;;;;;;;;;5121036;27;20216;-64
2021/06/09 06:39:50;;;;;;;0.10;0.10;;;;;;;;;;5118179;28;20228;-63
2021/06/09 06:42:17;;;;;;;0.00;0.00;;;;;;;;;;5119674;28;20503;-63
2021/06/09 06:44:43;;;;;;;0.05;0.05;;;;;;;;;;5119396;28;20202;-62
2021/06/09 06:47:11;;;;;;;0.10;0.10;;;;;;;;;;5121339;28;20203;-63
2021/06/09 06:49:37;;;;;;;0.00;0.00;;;;;;;;;;5121071;28;20239;-63
2021/06/09 06:52:03;;;;;;;0.10;0.10;;;;;;;;;;5118402;27;20594;-63
2021/06/09 06:54:29;;;;;;;0.00;0.00;;;;;;;;;;5111184;28;20204;-63
2021/06/09 06:56:56;;;;;;;0.00;0.00;;;;;;;;;;5123553;27;20201;-62
2021/06/09 06:59:23;;;;;;;0.00;0.00;;;;;;;;;;5114455;27;20205;-62
2021/06/09 07:01:48;;;;;;;0.00;0.00;;;;;;;;;;5114994;28;20199;-65
2021/06/09 07:04:17;;;;;;;0.00;0.00;;;;;;;;;;5116897;27;20205;-62
2021/06/09 07:06:43;;;;;;;0.00;0.00;;;;;;;;;;5123170;28;20205;-63
2021/06/09 07:09:09;;;;;;;0.00;0.00;;;;;;;;;;5122197;28;20208;-63
2021/06/09 07:11:35;;;;;;;0.00;0.00;;;;;;;;;;5123818;27;20230;-64
2021/06/09 07:14:02;;;;;;;0.00;0.00;;;;;;;;;;5124663;28;20204;-63
2021/06/09 07:16:28;;;;;;;0.00;0.00;;;;;;;;;;5122665;28;20494;-65
2021/06/09 07:18:54;;;;;;;0.00;0.00;;;;;;;;;;5119961;28;20204;-65
2021/06/09 07:21:22;;;;;;;0.00;0.00;;;;;;;;;;5120465;27;20284;-64
2021/06/09 07:23:48;;;;;;;0.00;0.00;;;;;;;;;;5121936;27;20394;-63
2021/06/09 07:26:15;;;;;;;0.00;0.00;;;;;;;;;;5130447;27;20205;-64
2021/06/09 07:28:43;;;;;;;0.00;0.00;;;;;;;;;;5118003;28;20199;-64
2021/06/09 07:31:09;;;;;;;0.00;0.00;;;;;;;;;;5115983;28;20218;-63
2021/06/09 07:33:35;;;;;;;0.00;0.00;;;;;;;;;;5115370;28;20210;-63
2021/06/09 07:36:04;;;;;;;0.00;0.00;;;;;;;;;;5121150;28;20213;-64
2021/06/09 07:38:34;;;;;;;0.00;0.00;;;;;;;;;;5117084;28;20292;-63
2021/06/09 07:41:01;;;;;;;0.10;0.10;;;;;;;;;;5113735;27;20196;-63
2021/06/09 07:43:28;;;;;;;0.00;0.00;;;;;;;;;;5120007;28;20539;-63
2021/06/09 07:45:55;;;;;;;0.10;0.10;;;;;;;;;;5123845;28;20243;-66
2021/06/09 07:48:22;;;;;;;0.00;0.00;;;;;;;;;;5133386;27;20200;-67
2021/06/09 07:50:50;;;;;;;0.00;0.00;;;;;;;;;;5122204;28;20220;-67
2021/06/09 07:53:17;;;;;;;1.85;1.75;;;;;;;;;;5122144;28;20486;-67
2021/06/09 07:55:45;;;;;;;0.00;0.00;;;;;;;;;;5114511;28;20269;-65
2021/06/09 07:58:11;;;;;;;0.10;0.10;;;;;;;;;;5112254;28;20621;-65
2021/06/09 08:00:38;;;;;;;0.00;0.00;;;;;;;;;;5123777;28;20478;-66
2021/06/09 08:03:04;;;;;;;0.00;0.00;;;;;;;;;;5115477;28;20205;-67
2021/06/09 08:05:31;;;;;;;0.00;0.00;;;;;;;;;;5117539;28;20203;-66
2021/06/09 08:07:56;;;;;;;0.10;0.10;;;;;;;;;;5123865;28;20203;-66
2021/06/09 08:10:23;;;;;;;0.10;0.10;;;;;;;;;;5118188;28;20211;-66
2021/06/09 08:12:51;;;;;;;0.00;0.00;;;;;;;;;;5123985;28;20227;-66
2021/06/09 08:15:17;;;;;;;0.10;0.10;;;;;;;;;;5122868;28;20381;-67
2021/06/09 08:17:45;;;;;;;0.00;0.00;;;;;;;;;;5123358;28;20199;-66
2021/06/09 08:20:12;;;;;;;0.00;0.00;;;;;;;;;;5121052;28;20199;-66
2021/06/09 08:22:40;;;;;;;0.00;0.00;;;;;;;;;;5122659;28;20210;-66
2021/06/09 08:25:07;;;;;;;0.00;0.00;;;;;;;;;;5124579;28;20203;-67
2021/06/09 08:27:33;;;;;;;0.00;0.00;;;;;;;;;;5110113;28;20205;-66
2021/06/09 08:30:00;;;;;;;0.00;0.00;;;;;;;;;;5109306;28;20283;-66
2021/06/09 08:32:26;;;;;;;0.00;0.00;;;;;;;;;;5115921;27;20236;-66
2021/06/09 08:34:51;;;;;;;0.00;0.00;;;;;;;;;;5127846;28;20201;-66
2021/06/09 08:37:17;;;;;;;0.00;0.00;;;;;;;;;;5125323;28;20216;-67
2021/06/09 08:39:43;;;;;;;0.00;0.00;;;;;;;;;;5122689;28;20221;-66
2021/06/09 08:42:09;;;;;;;0.00;0.00;;;;;;;;;;5127017;28;20276;-67
2021/06/09 08:44:39;;;;;;;0.00;0.00;;;;;;;;;;5119964;28;20244;-66
2021/06/09 08:47:08;;;;;;;0.00;0.00;;;;;;;;;;5114722;28;20206;-66
2021/06/09 08:49:35;;;;;;;0.03;0.03;;;;;;;;;;5124293;28;20209;-66
2021/06/09 08:52:02;;;;;;;0.00;0.00;;;;;;;;;;5134790;27;20235;-67
2021/06/09 08:54:29;;;;;;;0.00;0.00;;;;;;;;;;5119407;27;20212;-66
2021/06/09 08:56:55;;;;;;;0.00;0.00;;;;;;;;;;5120642;28;20206;-66
2021/06/09 08:59:21;;;;;;;0.00;0.00;;;;;;;;;;5110554;28;20233;-66
2021/06/09 09:01:48;;;;;;;0.00;0.00;;;;;;;;;;5122443;28;20542;-66
2021/06/09 09:04:15;;;;;;;0.00;0.00;;;;;;;;;;5112445;28;20210;-66
2021/06/09 09:06:41;;;;;;;0.00;0.00;;;;;;;;;;5115153;28;20494;-66
2021/06/09 09:09:07;;;;;;;0.00;0.00;;;;;;;;;;5114632;28;20220;-66
2021/06/09 09:11:33;;;;;;;0.00;0.00;;;;;;;;;;5120420;28;20222;-66
2021/06/09 09:13:59;;;;;;;0.10;0.10;;;;;;;;;;5120178;28;20202;-66
2021/06/09 09:16:25;;;;;;;0.00;0.00;;;;;;;;;;5120042;27;20477;-66
2021/06/09 09:18:58;;;;;;;0.00;0.00;;;;;;;;;;5135422;27;20435;-66
2021/06/09 09:21:37;;;;;;;0.00;0.00;;;;;;;;;;5122662;28;20218;-66
2021/06/09 09:24:06;;;;;;;0.00;0.00;;;;;;;;;;5109763;28;20269;-66
2021/06/09 09:26:34;;;;;;;0.00;0.00;;;;;;;;;;5124598;28;20493;-66
2021/06/09 09:29:10;;;;;;;0.00;0.00;;;;;;;;;;5137618;27;20221;-66
2021/06/09 09:31:46;;;;;;;0.00;0.00;;;;;;;;;;5139717;27;20512;-66
2021/06/09 09:34:26;;;;;;;0.00;0.00;;;;;;;;;;5109292;27;20218;-66
2021/06/09 09:37:03;;;;;;;0.00;0.00;;;;;;;;;;5116632;27;20195;-67
2021/06/09 09:39:30;;;;;;;0.00;0.00;;;;;;;;;;5126043;28;20222;-66
2021/06/09 09:41:56;;;;;;;0.00;0.00;;;;;;;;;;5126154;28;20198;-67
2021/06/09 09:44:21;;;;;;;0.00;0.00;;;;;;;;;;5124674;28;20206;-67
2021/06/09 09:46:52;;;;;;;0.00;0.00;;;;;;;;;;5118946;28;20274;-67
2021/06/09 09:49:19;;;;;;;0.00;0.00;;;;;;;;;;5123005;28;20553;-67
2021/06/09 09:51:58;;;;;;;0.00;0.00;;;;;;;;;;5120868;28;20226;-68
2021/06/09 09:54:26;;;;;;;0.00;0.00;;;;;;;;;;5125971;28;20387;-67
2021/06/09 09:56:52;;;;;;;0.00;0.00;;;;;;;;;;5131993;27;20205;-67
2021/06/09 09:59:19;;;;;;;0.00;0.00;;;;;;;;;;5121418;27;20245;-67
2021/06/09 10:01:50;;;;;;;0.10;0.10;;;;;;;;;;5121289;28;20262;-67
2021/06/09 10:04:17;;;;;;;0.00;0.00;;;;;;;;;;5107369;28;20198;-67
2021/06/09 10:06:43;;;;;;;0.00;0.00;;;;;;;;;;5121902;28;20203;-67
2021/06/09 10:09:11;;;;;;;0.00;0.00;;;;;;;;;;5118635;28;20202;-66
2021/06/09 10:11:40;;;;;;;0.00;0.00;;;;;;;;;;5116305;28;20230;-65
2021/06/09 10:14:14;;;;;;;0.00;0.00;;;;;;;;;;5114419;28;20213;-66
2021/06/09 10:16:41;;;;;;;0.00;0.00;;;;;;;;;;5124217;28;20204;-66
2021/06/09 10:19:07;;;;;;;0.00;0.00;;;;;;;;;;5124077;27;20281;-66
2021/06/09 10:21:34;;;;;;;0.00;0.00;;;;;;;;;;5125615;28;20216;-66
2021/06/09 10:24:01;;;;;;;0.00;0.00;;;;;;;;;;5125762;28;20248;-66
2021/06/09 10:26:28;;;;;;;0.00;0.00;;;;;;;;;;5125388;28;20202;-66
2021/06/09 10:28:59;;;;;;;0.00;0.00;;;;;;;;;;5123284;28;20213;-66
2021/06/09 10:31:25;;;;;;;0.00;0.00;;;;;;;;;;5125515;28;20226;-67
2021/06/09 10:33:51;;;;;;;0.00;0.00;;;;;;;;;;5109482;28;20209;-66
2021/06/09 10:36:17;;;;;;;0.00;0.00;;;;;;;;;;5106995;28;20199;-66
2021/06/09 10:38:45;;;;;;;0.00;0.00;;;;;;;;;;5115344;28;20226;-66
2021/06/09 10:41:10;;;;;;;0.00;0.00;;;;;;;;;;5118519;28;20195;-66
2021/06/09 10:43:37;;;;;;;0.00;0.00;;;;;;;;;;5120236;28;20343;-66
2021/06/09 10:46:05;;;;;;;0.00;0.00;;;;;;;;;;5124194;28;20202;-66
2021/06/09 10:48:33;;;;;;;0.00;0.00;;;;;;;;;;5121924;28;20229;-66
2021/06/09 10:50:59;;;;;;;0.00;0.00;;;;;;;;;;5122645;28;20220;-66
2021/06/09 10:53:25;;;;;;;0.00;0.00;;;;;;;;;;5123909;27;20269;-66
2021/06/09 10:55:51;;;;;;;0.00;0.00;;;;;;;;;;5124129;28;20447;-66
2021/06/09 10:58:16;;;;;;;0.00;0.00;;;;;;;;;;5122046;27;20237;-66
2021/06/09 11:00:42;;;;;;;0.00;0.00;;;;;;;;;;5105860;28;20202;-66
2021/06/09 11:03:10;;;;;;;0.00;0.00;;;;;;;;;;5123442;27;20272;-66
2021/06/09 11:05:36;;;;;;;0.00;0.00;;;;;;;;;;5118993;27;20243;-66
2021/06/09 11:08:04;;;;;;;0.00;0.00;;;;;;;;;;5124535;28;20277;-66
2021/06/09 11:10:40;;;;;;;0.00;0.00;;;;;;;;;;5130066;27;20198;-66
2021/06/09 11:13:07;;;;;;;0.00;0.00;;;;;;;;;;5139006;27;20229;-66
2021/06/09 11:15:34;;;;;;;0.00;0.00;;;;;;;;;;5140405;27;20222;-66
2021/06/09 11:18:03;;;;;;;0.00;0.00;;;;;;;;;;5145559;27;20242;-65
2021/06/09 11:20:33;;;;;;;0.00;0.00;;;;;;;;;;5143045;27;20212;-66
2021/06/09 11:23:00;;;;;;;0.00;0.00;;;;;;;;;;5135811;27;20209;-66
2021/06/09 11:25:28;;;;;;;0.00;0.00;;;;;;;;;;5139969;27;20198;-66
2021/06/09 11:27:55;;;;;;;0.00;0.00;;;;;;;;;;5133947;27;20240;-66
2021/06/09 11:30:40;;;;;;;0.00;0.00;;;;;;;;;;5146473;27;20228;-66
2021/06/09 11:33:07;;;;;;;0.00;0.00;;;;;;;;;;5136146;27;20516;-67
2021/06/09 11:35:45;;;;;;;0.00;0.00;;;;;;;;;;5141797;27;20237;-66
2021/06/09 11:38:24;;;;;;;0.00;0.00;;;;;;;;;;5137598;27;20287;-66
2021/06/09 11:40:51;;;;;;;0.00;0.00;;;;;;;;;;5138192;27;20212;-66
2021/06/09 11:43:17;;;;;;;0.00;0.00;;;;;;;;;;5144710;27;20275;-66
2021/06/09 11:45:50;;;;;;;0.00;0.00;;;;;;;;;;5140413;27;20277;-66
2021/06/09 11:48:16;;;;;;;0.00;0.00;;;;;;;;;;5152571;27;20201;-66
2021/06/09 11:50:43;;;;;;;0.00;0.00;;;;;;;;;;5142273;27;20521;-66
2021/06/09 11:53:13;;;;;;;0.00;0.00;;;;;;;;;;5145722;27;20223;-65
2021/06/09 11:55:39;;;;;;;0.00;0.00;;;;;;;;;;5154611;27;20205;-66
2021/06/09 11:58:06;;;;;;;0.00;0.00;;;;;;;;;;5144703;27;20391;-66
2021/06/09 12:00:32;;;;;;;0.00;0.00;;;;;;;;;;5134909;27;20213;-67
2021/06/09 12:03:12;;;;;;;0.00;0.00;;;;;;;;;;5130190;28;20245;-66
2021/06/09 12:05:38;;;;;;;0.00;0.00;;;;;;;;;;5139197;27;20221;-67
2021/06/09 12:08:11;;;;;;;0.00;0.00;;;;;;;;;;5133535;28;20488;-67
2021/06/09 12:10:37;;;;;;;0.00;0.00;;;;;;;;;;5135500;27;20194;-66
2021/06/09 12:13:03;;;;;;;0.00;0.00;;;;;;;;;;5142178;28;20252;-66
2021/06/09 12:15:28;;;;;;;0.00;0.00;;;;;;;;;;5131758;28;20244;-66
2021/06/09 12:17:54;;;;;;;0.00;0.00;;;;;;;;;;5143542;28;20209;-67
2021/06/09 12:20:20;;;;;;;0.00;0.00;;;;;;;;;;5139639;28;20238;-67
2021/06/09 12:22:47;;;;;;;0.00;0.00;;;;;;;;;;5140912;28;20376;-68
2021/06/09 12:25:15;;;;;;;0.00;0.00;;;;;;;;;;5142607;28;20415;-67
2021/06/09 12:27:42;;;;;;;0.00;0.00;;;;;;;;;;5143523;28;20372;-67
2021/06/09 12:30:09;;;;;;;0.00;0.00;;;;;;;;;;5143682;28;20287;-67
2021/06/09 12:32:35;;;;;;;0.00;0.00;;;;;;;;;;5124626;28;20230;-67
2021/06/09 12:35:03;;;;;;;0.00;0.00;;;;;;;;;;5137890;28;20224;-67
2021/06/09 12:37:29;;;;;;;0.00;0.00;;;;;;;;;;5132225;28;20489;-67
2021/06/09 12:39:56;;;;;;;0.00;0.00;;;;;;;;;;5138995;27;20208;-67
2021/06/09 12:42:23;;;;;;;0.00;0.00;;;;;;;;;;5146447;27;20316;-67
2021/06/09 12:44:49;;;;;;;0.00;0.00;;;;;;;;;;5135999;27;20203;-67
2021/06/09 12:47:22;;;;;;;0.00;0.00;;;;;;;;;;5145210;27;20251;-67
2021/06/09 12:49:48;;;;;;;0.00;0.00;;;;;;;;;;5139320;28;20231;-67
2021/06/09 12:52:14;;;;;;;0.00;0.00;;;;;;;;;;5142544;28;20225;-66
2021/06/09 12:54:52;;;;;;;0.00;0.00;;;;;;;;;;5141848;28;20272;-67
2021/06/09 12:57:29;;;;;;;0.00;0.00;;;;;;;;;;5124143;28;20210;-67
2021/06/09 12:59:55;;;;;;;0.00;0.00;;;;;;;;;;5143420;27;20225;-66
2021/06/09 13:02:20;;;;;;;0.00;0.00;;;;;;;;;;5126551;28;20209;-67
2021/06/09 13:04:46;;;;;;;0.00;0.00;;;;;;;;;;5141156;28;20208;-67
2021/06/09 13:07:12;;;;;;;0.00;0.00;;;;;;;;;;5128340;28;20226;-66
2021/06/09 13:09:38;;;;;;;0.00;0.00;;;;;;;;;;5134233;28;20223;-67
2021/06/09 13:12:04;;;;;;;0.00;0.00;;;;;;;;;;5145955;27;20370;-67
2021/06/09 13:14:32;;;;;;;0.00;0.00;;;;;;;;;;5140959;27;20206;-67
2021/06/09 13:17:06;;;;;;;0.00;0.00;;;;;;;;;;5147522;27;20202;-67
2021/06/09 13:19:33;;;;;;;0.00;0.00;;;;;;;;;;5147487;27;20205;-67
2021/06/09 13:21:59;;;;;;;0.00;0.00;;;;;;;;;;5129386;27;20217;-68
2021/06/09 13:24:27;;;;;;;0.00;0.00;;;;;;;;;;5145387;27;20492;-67
2021/06/09 13:26:53;;;;;;;0.00;0.00;;;;;;;;;;5144667;27;20264;-67
2021/06/09 13:29:21;;;;;;;0.00;0.00;;;;;;;;;;5147242;27;20202;-67
2021/06/09 13:31:49;;;;;;;0.00;0.00;;;;;;;;;;5133948;27;20222;-68
2021/06/09 13:34:16;;;;;;;0.00;0.00;;;;;;;;;;5141283;27;20260;-67
2021/06/09 13:36:42;;;;;;;0.00;0.00;;;;;;;;;;5130023;27;20208;-67
2021/06/09 13:39:09;;;;;;;0.00;0.00;;;;;;;;;;5147310;27;20245;-66
2021/06/09 13:41:36;;;;;;;0.00;0.00;;;;;;;;;;5146806;27;20197;-65
2021/06/09 13:44:01;;;;;;;0.00;0.00;;;;;;;;;;5151092;27;20235;-65
2021/06/09 13:46:40;;;;;;;0.00;0.00;;;;;;;;;;5145296;27;20213;-66
2021/06/09 13:49:08;;;;;;;0.00;0.00;;;;;;;;;;5142705;27;20469;-64
2021/06/09 13:51:36;;;;;;;0.00;0.00;;;;;;;;;;5151021;27;20440;-65
2021/06/09 13:54:04;;;;;;;0.00;0.00;;;;;;;;;;5136559;27;20201;-65
2021/06/09 13:56:31;;;;;;;0.00;0.00;;;;;;;;;;5143277;27;20204;-66
2021/06/09 13:59:10;;;;;;;0.00;0.00;;;;;;;;;;5140427;27;20213;-66
2021/06/09 14:01:36;;;;;;;0.00;0.00;;;;;;;;;;5144002;27;20243;-67
2021/06/09 14:04:02;;;;;;;0.00;0.00;;;;;;;;;;5140922;27;20205;-64
2021/06/09 14:06:29;;;;;;;0.00;0.00;;;;;;;;;;5142126;27;20224;-64
2021/06/09 14:09:02;;;;;;;0.00;0.00;;;;;;;;;;5135019;27;20254;-64
2021/06/09 14:11:28;;;;;;;0.00;0.00;;;;;;;;;;5137364;27;20225;-66
2021/06/09 14:13:53;;;;;;;0.00;0.00;;;;;;;;;;5128416;27;20213;-65
2021/06/09 14:16:20;;;;;;;0.00;0.00;;;;;;;;;;5134951;27;20209;-65
2021/06/09 14:18:46;;;;;;;0.00;0.00;;;;;;;;;;5152319;27;20201;-65
2021/06/09 14:21:13;;;;;;;0.00;0.00;;;;;;;;;;5140358;27;20236;-64
2021/06/09 14:23:42;;;;;;;0.00;0.00;;;;;;;;;;5134340;27;20201;-64
2021/06/09 14:26:08;;;;;;;0.00;0.00;;;;;;;;;;5140679;27;20309;-65
2021/06/09 14:28:35;;;;;;;0.00;0.00;;;;;;;;;;5141591;27;20500;-65
2021/06/09 14:31:02;;;;;;;0.00;0.00;;;;;;;;;;5137748;27;20392;-65
2021/06/09 14:33:31;;;;;;;0.00;0.00;;;;;;;;;;5135288;27;20221;-64
2021/06/09 14:36:00;;;;;;;0.00;0.00;;;;;;;;;;5139313;27;20268;-64
2021/06/09 14:38:26;;;;;;;0.00;0.00;;;;;;;;;;5133361;27;20232;-63
2021/06/09 14:40:54;;;;;;;0.00;0.00;;;;;;;;;;5143652;27;20206;-65
2021/06/09 14:43:20;;;;;;;0.00;0.00;;;;;;;;;;5142215;27;20202;-65